sensor_id;sensor_type;location;lat;lon;timestamp;pressure;altitude;pressure_sealevel;temperature;humidity
70304;BME280;57712;48.752;11.348;2023-02-16T00:01:48;98675.09;;;-0.02;100.00
70304;BME280;57712;48.752;11.348;2023-02-16T00:04:21;98669.75;;;-0.10;100.00
70304;BME280;57712;48.752;11.348;2023-02-16T00:06:49;98673.97;;;-0.01;100.00
70304;BME280;57712;48.752;11.348;2023-02-16T00:09:16;98678.28;;;0.01;100.00
70304;BME280;57712;48.752;11.348;2023-02-16T00:11:44;98667.44;;;0.18;100.00
70304;BME280;57712;48.752;11.348;2023-02-16T00:14:32;98670.13;;;0.18;100.00
70304;BME280;57712;48.752;11.348;2023-02-16T00:16:59;98658.44;;;0.05;100.00
70304;BME280;57712;48.752;11.348;2023-02-16T00:19:28;98659.53;;;0.13;100.00
70304;BME280;57712;48.752;11.348;2023-02-16T00:21:57;98669.41;;;-0.09;100.00
70304;BME280;57712;48.752;11.348;2023-02-16T00:24:26;98667.00;;;0.07;100.00
70304;BME280;57712;48.752;11.348;2023-02-16T00:26:53;98675.09;;;-0.02;100.00
70304;BME280;57712;48.752;11.348;2023-02-16T00:29:34;98672.22;;;0.12;100.00
70304;BME280;57712;48.752;11.348;2023-02-16T00:32:03;98679.06;;;-0.08;100.00
70304;BME280;57712;48.752;11.348;2023-02-16T00:37:01;98675.72;;;-0.05;100.00
70304;BME280;57712;48.752;11.348;2023-02-16T00:39:28;98667.31;;;-0.03;100.00
70304;BME280;57712;48.752;11.348;2023-02-16T00:41:58;98670.34;;;-0.22;100.00
70304;BME280;57712;48.752;11.348;2023-02-16T00:44:32;98674.47;;;-0.16;100.00
70304;BME280;57712;48.752;11.348;2023-02-16T00:47:03;98674.81;;;-0.17;100.00
70304;BME280;57712;48.752;11.348;2023-02-16T00:49:34;98656.22;;;-0.02;100.00
70304;BME280;57712;48.752;11.348;2023-02-16T00:52:01;98667.94;;;0.11;100.00
70304;BME280;57712;48.752;11.348;2023-02-16T00:54:28;98664.16;;;-0.05;100.00
70304;BME280;57712;48.752;11.348;2023-02-16T00:56:57;98653.59;;;-0.19;100.00
70304;BME280;57712;48.752;11.348;2023-02-16T00:59:23;98665.13;;;-0.10;100.00
70304;BME280;57712;48.752;11.348;2023-02-16T01:01:50;98660.09;;;-0.28;100.00
70304;BME280;57712;48.752;11.348;2023-02-16T01:04:20;98667.84;;;-0.10;100.00
70304;BME280;57712;48.752;11.348;2023-02-16T01:06:47;98664.97;;;-0.22;100.00
70304;BME280;57712;48.752;11.348;2023-02-16T01:09:52;98661.81;;;-0.24;100.00
70304;BME280;57712;48.752;11.348;2023-02-16T01:12:37;98660.41;;;-0.30;100.00
70304;BME280;57712;48.752;11.348;2023-02-16T01:15:05;98651.50;;;-0.22;100.00
70304;BME280;57712;48.752;11.348;2023-02-16T01:17:35;98659.25;;;-0.12;100.00
70304;BME280;57712;48.752;11.348;2023-02-16T01:20:02;98651.19;;;-0.12;100.00
70304;BME280;57712;48.752;11.348;2023-02-16T01:22:29;98651.38;;;-0.17;100.00
70304;BME280;57712;48.752;11.348;2023-02-16T01:24:58;98653.88;;;-0.12;100.00
70304;BME280;57712;48.752;11.348;2023-02-16T01:27:25;98651.50;;;-0.13;100.00
70304;BME280;57712;48.752;11.348;2023-02-16T01:29:51;98660.22;;;-0.08;100.00
70304;BME280;57712;48.752;11.348;2023-02-16T01:32:18;98655.44;;;-0.11;100.00
70304;BME280;57712;48.752;11.348;2023-02-16T01:34:45;98652.28;;;-0.13;100.00
70304;BME280;57712;48.752;11.348;2023-02-16T01:37:13;98652.47;;;-0.18;100.00
70304;BME280;57712;48.752;11.348;2023-02-16T01:39:40;98649.31;;;-0.28;100.00
70304;BME280;57712;48.752;11.348;2023-02-16T01:45:03;98642.81;;;-0.19;100.00
70304;BME280;57712;48.752;11.348;2023-02-16T01:47:41;98644.34;;;-0.01;100.00
70304;BME280;57712;48.752;11.348;2023-02-16T01:50:21;98641.34;;;0.01;100.00
70304;BME280;57712;48.752;11.348;2023-02-16T01:53:05;98644.78;;;0.10;100.00
70304;BME280;57712;48.752;11.348;2023-02-16T01:55:37;98644.34;;;-0.01;100.00
70304;BME280;57712;48.752;11.348;2023-02-16T02:03:24;98626.59;;;-0.02;100.00
70304;BME280;57712;48.752;11.348;2023-02-16T02:06:32;98624.25;;;-0.12;100.00
70304;BME280;57712;48.752;11.348;2023-02-16T02:09:04;98620.44;;;-0.11;100.00
70304;BME280;57712;48.752;11.348;2023-02-16T02:11:45;98620.09;;;-0.01;100.00
70304;BME280;57712;48.752;11.348;2023-02-16T02:14:25;98619.97;;;-0.13;100.00
70304;BME280;57712;48.752;11.348;2023-02-16T02:16:58;98619.97;;;-0.13;100.00
70304;BME280;57712;48.752;11.348;2023-02-16T02:19:26;98614.59;;;-0.13;100.00
70304;BME280;57712;48.752;11.348;2023-02-16T02:45:23;98616.66;;;-0.10;100.00
70304;BME280;57712;48.752;11.348;2023-02-16T02:47:50;98618.56;;;-0.10;100.00
70304;BME280;57712;48.752;11.348;2023-02-16T02:53:07;98608.44;;;-0.13;100.00
70304;BME280;57712;48.752;11.348;2023-02-16T02:55:36;98608.59;;;-0.10;100.00
70304;BME280;57712;48.752;11.348;2023-02-16T02:58:24;98603.22;;;-0.10;100.00
70304;BME280;57712;48.752;11.348;2023-02-16T03:01:12;98605.41;;;-0.12;100.00
70304;BME280;57712;48.752;11.348;2023-02-16T03:03:46;98609.22;;;-0.13;100.00
70304;BME280;57712;48.752;11.348;2023-02-16T03:06:21;98601.66;;;-0.28;100.00
70304;BME280;57712;48.752;11.348;2023-02-16T03:08:54;98606.19;;;-0.11;100.00
70304;BME280;57712;48.752;11.348;2023-02-16T03:11:23;98604.47;;;-0.16;100.00
70304;BME280;57712;48.752;11.348;2023-02-16T03:14:21;98602.91;;;-0.17;100.00
70304;BME280;57712;48.752;11.348;2023-02-16T03:16:59;98598.63;;;-0.18;100.00
70304;BME280;57712;48.752;11.348;2023-02-16T03:19:47;98594.34;;;-0.19;100.00
70304;BME280;57712;48.752;11.348;2023-02-16T03:22:34;98601.69;;;-0.45;100.00
70304;BME280;57712;48.752;11.348;2023-02-16T03:25:22;98602.59;;;-0.24;100.00
70304;BME280;57712;48.752;11.348;2023-02-16T03:28:09;98607.31;;;-0.21;100.00
70304;BME280;57712;48.752;11.348;2023-02-16T03:30:56;98606.13;;;-0.49;100.00
70304;BME280;57712;48.752;11.348;2023-02-16T03:33:24;98591.38;;;-0.43;100.00
70304;BME280;57712;48.752;11.348;2023-02-16T03:35:53;98607.06;;;-0.45;100.00
70304;BME280;57712;48.752;11.348;2023-02-16T03:38:21;98611.81;;;-0.42;100.00
70304;BME280;57712;48.752;11.348;2023-02-16T03:40:49;98609.75;;;-0.54;100.00
70304;BME280;57712;48.752;11.348;2023-02-16T03:43:16;98613.09;;;-0.48;100.00
70304;BME280;57712;48.752;11.348;2023-02-16T03:45:43;98612.63;;;-0.50;100.00
70304;BME280;57712;48.752;11.348;2023-02-16T03:48:10;98612.13;;;-0.52;100.00
70304;BME280;57712;48.752;11.348;2023-02-16T03:50:37;98606.59;;;-0.73;100.00
70304;BME280;57712;48.752;11.348;2023-02-16T03:53:04;98614.53;;;-0.68;100.00
70304;BME280;57712;48.752;11.348;2023-02-16T03:55:42;98606.75;;;-0.52;100.00
70304;BME280;57712;48.752;11.348;2023-02-16T03:58:12;98610.09;;;-0.55;100.00
70304;BME280;57712;48.752;11.348;2023-02-16T04:00:39;98610.25;;;-0.61;100.00
70304;BME280;57712;48.752;11.348;2023-02-16T04:03:06;98611.19;;;-0.56;100.00
70304;BME280;57712;48.752;11.348;2023-02-16T04:05:34;98608.22;;;-0.72;100.00
70304;BME280;57712;48.752;11.348;2023-02-16T04:08:01;98616.75;;;-0.62;100.00
70304;BME280;57712;48.752;11.348;2023-02-16T04:10:29;98619.25;;;-0.48;100.00
70304;BME280;57712;48.752;11.348;2023-02-16T04:12:55;98616.56;;;-0.39;100.00
70304;BME280;57712;48.752;11.348;2023-02-16T04:15:25;98609.09;;;-0.42;100.00
70304;BME280;57712;48.752;11.348;2023-02-16T04:17:53;98608.63;;;-0.27;100.00
70304;BME280;57712;48.752;11.348;2023-02-16T04:20:25;98617.97;;;-0.33;100.00
70304;BME280;57712;48.752;11.348;2023-02-16T04:22:54;98611.63;;;-0.28;100.00
70304;BME280;57712;48.752;11.348;2023-02-16T04:25:21;98621.63;;;-0.46;100.00
70304;BME280;57712;48.752;11.348;2023-02-16T04:27:48;98616.25;;;-0.46;100.00
70304;BME280;57712;48.752;11.348;2023-02-16T04:30:23;98613.09;;;-0.66;100.00
70304;BME280;57712;48.752;11.348;2023-02-16T04:32:51;98611.50;;;-0.41;100.00
70304;BME280;57712;48.752;11.348;2023-02-16T04:35:18;98608.81;;;-0.58;100.00
70304;BME280;57712;48.752;11.348;2023-02-16T04:37:45;98610.72;;;-0.50;100.00
70304;BME280;57712;48.752;11.348;2023-02-16T04:40:14;98617.97;;;-0.42;100.00
70304;BME280;57712;48.752;11.348;2023-02-16T04:42:42;98614.34;;;-0.54;100.00
70304;BME280;57712;48.752;11.348;2023-02-16T04:45:10;98610.72;;;-0.41;100.00
70304;BME280;57712;48.752;11.348;2023-02-16T04:47:36;98614.53;;;-0.68;100.00
70304;BME280;57712;48.752;11.348;2023-02-16T04:50:04;98612.81;;;-0.73;100.00
70304;BME280;57712;48.752;11.348;2023-02-16T04:52:30;98609.59;;;-0.75;100.00
70304;BME280;57712;48.752;11.348;2023-02-16T04:54:57;98607.72;;;-0.66;100.00
70304;BME280;57712;48.752;11.348;2023-02-16T04:57:24;98610.25;;;-0.78;100.00
70304;BME280;57712;48.752;11.348;2023-02-16T04:59:51;98608.66;;;-0.79;100.00
70304;BME280;57712;48.752;11.348;2023-02-16T05:02:17;98609.59;;;-0.75;100.00
70304;BME280;57712;48.752;11.348;2023-02-16T05:04:44;98614.06;;;-0.62;100.00
70304;BME280;57712;48.752;11.348;2023-02-16T05:07:10;98613.72;;;-0.51;100.00
70304;BME280;57712;48.752;11.348;2023-02-16T05:09:36;98617.97;;;-0.42;100.00
70304;BME280;57712;48.752;11.348;2023-02-16T05:12:03;98617.16;;;-0.34;100.00
70304;BME280;57712;48.752;11.348;2023-02-16T05:14:49;98628.59;;;-0.45;100.00
70304;BME280;57712;48.752;11.348;2023-02-16T05:17:25;98637.31;;;-0.40;100.00
70304;BME280;57712;48.752;11.348;2023-02-16T05:19:55;98644.56;;;-0.32;100.00
70304;BME280;57712;48.752;11.348;2023-02-16T05:22:22;98632.88;;;-0.44;100.00
70304;BME280;57712;48.752;11.348;2023-02-16T05:24:48;98642.03;;;-0.45;100.00
70304;BME280;57712;48.752;11.348;2023-02-16T05:27:21;98630.81;;;-0.47;100.00
70304;BME280;57712;48.752;11.348;2023-02-16T05:29:48;98639.03;;;-0.52;100.00
70304;BME280;57712;48.752;11.348;2023-02-16T05:32:15;98646.47;;;-0.32;100.00
70304;BME280;57712;48.752;11.348;2023-02-16T05:34:42;98646.63;;;-0.37;100.00
70304;BME280;57712;48.752;11.348;2023-02-16T05:37:15;98639.50;;;-0.42;100.00
70304;BME280;57712;48.752;11.348;2023-02-16T05:39:42;98643.78;;;-0.32;100.00
70304;BME280;57712;48.752;11.348;2023-02-16T05:42:09;98645.06;;;-0.38;100.00
70304;BME280;57712;48.752;11.348;2023-02-16T05:44:36;98644.09;;;-0.42;100.00
70304;BME280;57712;48.752;11.348;2023-02-16T05:47:03;98644.88;;;-0.33;100.00
70304;BME280;57712;48.752;11.348;2023-02-16T05:49:30;98642.69;;;-0.40;100.00
70304;BME280;57712;48.752;11.348;2023-02-16T05:51:57;98646.47;;;-0.32;100.00
70304;BME280;57712;48.752;11.348;2023-02-16T05:54:24;98655.00;;;-0.21;100.00
70304;BME280;57712;48.752;11.348;2023-02-16T05:56:51;98647.44;;;-0.45;100.00
70304;BME280;57712;48.752;11.348;2023-02-16T05:59:18;98646.63;;;-0.37;100.00
70304;BME280;57712;48.752;11.348;2023-02-16T06:01:46;98646.97;;;-0.30;100.00
70304;BME280;57712;48.752;11.348;2023-02-16T06:04:17;98659.63;;;-0.39;100.00
70304;BME280;57712;48.752;11.348;2023-02-16T06:06:44;98660.56;;;-0.35;100.00
70304;BME280;57712;48.752;11.348;2023-02-16T06:09:11;98659.78;;;-0.44;100.00
70304;BME280;57712;48.752;11.348;2023-02-16T06:11:38;98661.22;;;-0.38;100.00
70304;BME280;57712;48.752;11.348;2023-02-16T06:16:33;98672.28;;;-0.31;100.00
70304;BME280;57712;48.752;11.348;2023-02-16T06:19:00;98666.72;;;-0.26;100.00
70304;BME280;57712;48.752;11.348;2023-02-16T06:21:27;98672.72;;;-0.12;100.00
70304;BME280;57712;48.752;11.348;2023-02-16T06:23:54;98673.84;;;-0.13;100.00
70304;BME280;57712;48.752;11.348;2023-02-16T06:26:21;98684.00;;;-0.27;100.00
70304;BME280;57712;48.752;11.348;2023-02-16T06:28:48;98681.13;;;-0.22;100.00
70304;BME280;57712;48.752;11.348;2023-02-16T06:31:15;98681.44;;;-0.32;100.00
70304;BME280;57712;48.752;11.348;2023-02-16T06:33:42;98680.53;;;-0.27;100.00
70304;BME280;57712;48.752;11.348;2023-02-16T06:36:09;98680.97;;;-0.43;100.00
70304;BME280;57712;48.752;11.348;2023-02-16T06:38:36;98688.44;;;-0.31;100.00
70304;BME280;57712;48.752;11.348;2023-02-16T06:41:03;98683.84;;;-0.39;100.00
70304;BME280;57712;48.752;11.348;2023-02-16T06:43:30;98682.41;;;-0.28;100.00
70304;BME280;57712;48.752;11.348;2023-02-16T06:45:56;98670.69;;;-0.32;100.00
70304;BME280;57712;48.752;11.348;2023-02-16T06:48:23;98682.56;;;-0.24;100.00
70304;BME280;57712;48.752;11.348;2023-02-16T06:50:50;98680.50;;;-0.19;100.00
70304;BME280;57712;48.752;11.348;2023-02-16T06:53:17;98680.34;;;-0.14;100.00
70304;BME280;57712;48.752;11.348;2023-02-16T06:55:44;98691.59;;;-0.29;100.00
70304;BME280;57712;48.752;11.348;2023-02-16T06:58:11;98681.94;;;-0.39;100.00
70304;BME280;57712;48.752;11.348;2023-02-16T07:00:37;98676.56;;;-0.39;100.00
70304;BME280;57712;48.752;11.348;2023-02-16T07:03:04;98690.03;;;-0.30;100.00
70304;BME280;57712;48.752;11.348;2023-02-16T07:05:31;98687.75;;;-0.11;100.00
70304;BME280;57712;48.752;11.348;2023-02-16T07:07:57;98686.69;;;-0.27;100.00
70304;BME280;57712;48.752;11.348;2023-02-16T07:10:24;98688.09;;;-0.21;100.00
70304;BME280;57712;48.752;11.348;2023-02-16T07:12:50;98694.44;;;-0.25;100.00
70304;BME280;57712;48.752;11.348;2023-02-16T07:15:17;98697.59;;;-0.15;100.00
70304;BME280;57712;48.752;11.348;2023-02-16T07:17:44;98690.00;;;-0.13;100.00
70304;BME280;57712;48.752;11.348;2023-02-16T07:20:10;98692.22;;;-0.15;100.00
70304;BME280;57712;48.752;11.348;2023-02-16T07:22:38;98700.16;;;-0.10;100.00
70304;BME280;57712;48.752;11.348;2023-02-16T07:25:04;98698.38;;;0.12;100.00
70304;BME280;57712;48.752;11.348;2023-02-16T07:27:31;98694.72;;;0.08;100.00
70304;BME280;57712;48.752;11.348;2023-02-16T07:29:58;98697.84;;;0.27;100.00
70304;BME280;57712;48.752;11.348;2023-02-16T07:32:24;98694.22;;;0.23;100.00
70304;BME280;57712;48.752;11.348;2023-02-16T07:34:51;98691.22;;;0.16;100.00
70304;BME280;57712;48.752;11.348;2023-02-16T07:37:17;98694.09;;;0.11;100.00
70304;BME280;57712;48.752;11.348;2023-02-16T07:39:44;98706.13;;;0.05;100.00
70304;BME280;57712;48.752;11.348;2023-02-16T07:42:11;98702.13;;;0.28;100.00
70304;BME280;57712;48.752;11.348;2023-02-16T07:44:37;98695.28;;;0.39;100.00
70304;BME280;57712;48.752;11.348;2023-02-16T07:47:04;98689.97;;;0.13;100.00
70304;BME280;57712;48.752;11.348;2023-02-16T07:49:31;98704.03;;;0.27;100.00
70304;BME280;57712;48.752;11.348;2023-02-16T07:51:57;98698.97;;;0.17;100.00
70304;BME280;57712;48.752;11.348;2023-02-16T07:54:24;98707.25;;;0.04;100.00
70304;BME280;57712;48.752;11.348;2023-02-16T07:56:50;98704.88;;;0.11;100.00
70304;BME280;57712;48.752;11.348;2023-02-16T07:59:17;98711.34;;;0.18;100.00
70304;BME280;57712;48.752;11.348;2023-02-16T08:01:43;98702.13;;;0.28;100.00
70304;BME280;57712;48.752;11.348;2023-02-16T08:04:09;98706.56;;;0.33;100.00
70304;BME280;57712;48.752;11.348;2023-02-16T08:06:36;98703.34;;;0.39;100.00
70304;BME280;57712;48.752;11.348;2023-02-16T08:09:03;98705.44;;;0.42;100.00
70304;BME280;57712;48.752;11.348;2023-02-16T08:11:30;98699.75;;;0.26;100.00
70304;BME280;57712;48.752;11.348;2023-02-16T08:14:00;98711.78;;;0.29;100.00
70304;BME280;57712;48.752;11.348;2023-02-16T08:16:27;98716.66;;;0.44;100.00
70304;BME280;57712;48.752;11.348;2023-02-16T08:18:56;98709.91;;;0.21;100.00
70304;BME280;57712;48.752;11.348;2023-02-16T08:21:26;98703.09;;;0.15;100.00
70304;BME280;57712;48.752;11.348;2023-02-16T08:23:58;98709.41;;;0.27;100.00
70304;BME280;57712;48.752;11.348;2023-02-16T08:26:27;98704.03;;;0.27;100.00
70304;BME280;57712;48.752;11.348;2023-02-16T08:28:56;98708.84;;;0.51;100.00
70304;BME280;57712;48.752;11.348;2023-02-16T08:31:28;98702.09;;;0.37;100.00
70304;BME280;57712;48.752;11.348;2023-02-16T08:33:59;98712.91;;;0.28;100.00
70304;BME280;57712;48.752;11.348;2023-02-16T08:36:29;98702.00;;;0.16;100.00
70304;BME280;57712;48.752;11.348;2023-02-16T08:38:58;98687.72;;;0.24;100.00
70304;BME280;57712;48.752;11.348;2023-02-16T08:41:28;98691.81;;;0.30;100.00
70304;BME280;57712;48.752;11.348;2023-02-16T08:43:55;98706.47;;;0.58;100.00
70304;BME280;57712;48.752;11.348;2023-02-16T08:46:22;98700.34;;;0.79;100.00
70304;BME280;57712;48.752;11.348;2023-02-16T08:48:53;98698.81;;;0.69;100.00
70304;BME280;57712;48.752;11.348;2023-02-16T08:51:21;98693.19;;;0.83;100.00
70304;BME280;57712;48.752;11.348;2023-02-16T08:53:47;98696.34;;;0.55;100.00
70304;BME280;57712;48.752;11.348;2023-02-16T08:56:14;98692.69;;;0.90;100.00
70304;BME280;57712;48.752;11.348;2023-02-16T08:58:42;98709.19;;;0.88;100.00
70304;BME280;57712;48.752;11.348;2023-02-16T09:01:09;98712.50;;;0.55;100.00
70304;BME280;57712;48.752;11.348;2023-02-16T09:03:38;98707.22;;;0.68;100.00
70304;BME280;57712;48.752;11.348;2023-02-16T09:06:10;98708.03;;;0.98;100.00
70304;BME280;57712;48.752;11.348;2023-02-16T09:08:38;98708.63;;;1.03;100.00
70304;BME280;57712;48.752;11.348;2023-02-16T09:11:07;98709.72;;;1.11;100.00
70304;BME280;57712;48.752;11.348;2023-02-16T09:13:35;98713.75;;;0.96;100.00
70304;BME280;57712;48.752;11.348;2023-02-16T09:16:06;98717.84;;;1.02;100.00
70304;BME280;57712;48.752;11.348;2023-02-16T09:18:33;98710.78;;;1.19;100.00
70304;BME280;57712;48.752;11.348;2023-02-16T09:21:04;98714.41;;;1.43;100.00
70304;BME280;57712;48.752;11.348;2023-02-16T09:23:33;98713.28;;;1.24;100.00
70304;BME280;57712;48.752;11.348;2023-02-16T09:26:01;98719.16;;;0.96;100.00
70304;BME280;57712;48.752;11.348;2023-02-16T09:28:28;98715.34;;;0.97;100.00
70304;BME280;57712;48.752;11.348;2023-02-16T09:30:56;98717.72;;;0.99;100.00
70304;BME280;57712;48.752;11.348;2023-02-16T09:33:23;98719.19;;;1.17;100.00
70304;BME280;57712;48.752;11.348;2023-02-16T09:35:49;98717.22;;;1.05;100.00
70304;BME280;57712;48.752;11.348;2023-02-16T09:38:16;98729.38;;;1.11;100.00
70304;BME280;57712;48.752;11.348;2023-02-16T09:40:43;98725.72;;;0.86;100.00
70304;BME280;57712;48.752;11.348;2023-02-16T09:43:33;98726.56;;;0.70;100.00
70304;BME280;57712;48.752;11.348;2023-02-16T09:46:11;98727.09;;;1.22;100.00
70304;BME280;57712;48.752;11.348;2023-02-16T09:48:45;98728.16;;;1.30;100.00
70304;BME280;57712;48.752;11.348;2023-02-16T09:51:31;98724.25;;;1.48;100.00
70304;BME280;57712;48.752;11.348;2023-02-16T09:54:23;98724.59;;;1.67;100.00
70304;BME280;57712;48.752;11.348;2023-02-16T09:57:44;98714.59;;;1.18;100.00
70304;BME280;57712;48.752;11.348;2023-02-16T10:08:06;98708.94;;;1.94;100.00
70304;BME280;57712;48.752;11.348;2023-02-16T10:13:41;98718.50;;;1.50;100.00
70304;BME280;57712;48.752;11.348;2023-02-16T10:16:25;98717.31;;;2.01;100.00
70304;BME280;57712;48.752;11.348;2023-02-16T10:18:55;98714.63;;;1.80;100.00
70304;BME280;57712;48.752;11.348;2023-02-16T10:21:26;98710.38;;;2.12;100.00
70304;BME280;57712;48.752;11.348;2023-02-16T10:24:02;98700.22;;;2.09;100.00
70304;BME280;57712;48.752;11.348;2023-02-16T10:26:34;98711.78;;;2.30;100.00
70304;BME280;57712;48.752;11.348;2023-02-16T10:29:14;98697.19;;;2.80;100.00
70304;BME280;57712;48.752;11.348;2023-02-16T10:34:33;98701.69;;;2.88;100.00
70304;BME280;57712;48.752;11.348;2023-02-16T10:42:38;98703.47;;;3.86;100.00
70304;BME280;57712;48.752;11.348;2023-02-16T10:47:53;98701.84;;;3.57;100.00
70304;BME280;57712;48.752;11.348;2023-02-16T10:53:09;98684.41;;;4.26;100.00
70304;BME280;57712;48.752;11.348;2023-02-16T10:55:38;98680.19;;;4.13;100.00
70304;BME280;57712;48.752;11.348;2023-02-16T10:58:14;98675.00;;;4.51;100.00
70304;BME280;57712;48.752;11.348;2023-02-16T11:00:58;98672.00;;;4.88;100.00
70304;BME280;57712;48.752;11.348;2023-02-16T11:03:30;98675.34;;;6.98;100.00
70304;BME280;57712;48.752;11.348;2023-02-16T11:06:16;98668.50;;;7.64;100.00
70304;BME280;57712;48.752;11.348;2023-02-16T11:08:52;98661.38;;;6.76;100.00
70304;BME280;57712;48.752;11.348;2023-02-16T11:11:33;98662.59;;;7.92;100.00
70304;BME280;57712;48.752;11.348;2023-02-16T11:14:06;98654.34;;;7.55;100.00
70304;BME280;57712;48.752;11.348;2023-02-16T11:16:34;98647.81;;;7.03;100.00
70304;BME280;57712;48.752;11.348;2023-02-16T11:19:05;98640.66;;;8.55;100.00
70304;BME280;57712;48.752;11.348;2023-02-16T11:21:53;98640.16;;;7.72;100.00
70304;BME280;57712;48.752;11.348;2023-02-16T11:24:33;98642.41;;;7.63;100.00
70304;BME280;57712;48.752;11.348;2023-02-16T11:27:23;98634.16;;;7.29;100.00
70304;BME280;57712;48.752;11.348;2023-02-16T11:29:49;98637.75;;;7.37;100.00
70304;BME280;57712;48.752;11.348;2023-02-16T11:32:18;98631.69;;;8.18;100.00
70304;BME280;57712;48.752;11.348;2023-02-16T11:34:51;98626.78;;;10.63;100.00
70304;BME280;57712;48.752;11.348;2023-02-16T11:37:27;98624.88;;;9.44;100.00
70304;BME280;57712;48.752;11.348;2023-02-16T11:40:04;98616.50;;;10.10;100.00
70304;BME280;57712;48.752;11.348;2023-02-16T11:42:43;98621.84;;;9.67;100.00
70304;BME280;57712;48.752;11.348;2023-02-16T11:45:27;98614.94;;;9.11;100.00
70304;BME280;57712;48.752;11.348;2023-02-16T11:48:06;98608.75;;;10.33;100.00
70304;BME280;57712;48.752;11.348;2023-02-16T11:50:35;98605.81;;;9.62;100.00
70304;BME280;57712;48.752;11.348;2023-02-16T11:55:43;98601.69;;;10.96;100.00
70304;BME280;57712;48.752;11.348;2023-02-16T11:58:25;98595.47;;;10.46;100.00
70304;BME280;57712;48.752;11.348;2023-02-16T12:01:10;98590.50;;;11.68;100.00
70304;BME280;57712;48.752;11.348;2023-02-16T12:07:13;98582.91;;;10.70;100.00
70304;BME280;57712;48.752;11.348;2023-02-16T12:09:58;98582.09;;;10.98;100.00
70304;BME280;57712;48.752;11.348;2023-02-16T12:15:24;98576.47;;;13.14;100.00
70304;BME280;57712;48.752;11.348;2023-02-16T12:24:00;98567.88;;;12.67;100.00
70304;BME280;57712;48.752;11.348;2023-02-16T12:26:40;98559.59;;;13.80;100.00
70304;BME280;57712;48.752;11.348;2023-02-16T12:38:21;98550.84;;;14.86;88.56
70304;BME280;57712;48.752;11.348;2023-02-16T12:41:06;98548.56;;;15.44;92.72
70304;BME280;57712;48.752;11.348;2023-02-16T12:43:41;98545.25;;;14.70;89.24
70304;BME280;57712;48.752;11.348;2023-02-16T12:46:14;98537.59;;;14.31;91.76
70304;BME280;57712;48.752;11.348;2023-02-16T12:48:58;98532.31;;;14.40;91.46
70304;BME280;57712;48.752;11.348;2023-02-16T12:51:34;98536.75;;;14.34;96.88
70304;BME280;57712;48.752;11.348;2023-02-16T12:54:16;98527.94;;;14.19;92.92
70304;BME280;57712;48.752;11.348;2023-02-16T12:56:51;98525.41;;;13.13;100.00
70304;BME280;57712;48.752;11.348;2023-02-16T12:59:24;98523.56;;;13.03;100.00
70304;BME280;57712;48.752;11.348;2023-02-16T13:01:53;98511.81;;;14.18;95.73
70304;BME280;57712;48.752;11.348;2023-02-16T13:04:34;98514.69;;;13.83;96.84
70304;BME280;57712;48.752;11.348;2023-02-16T13:09:52;98511.56;;;15.22;89.13
70304;BME280;57712;48.752;11.348;2023-02-16T13:12:29;98504.75;;;13.90;97.49
70304;BME280;57712;48.752;11.348;2023-02-16T13:15:19;98504.41;;;13.88;95.91
70304;BME280;57712;48.752;11.348;2023-02-16T13:20:18;98491.25;;;13.41;100.00
70304;BME280;57712;48.752;11.348;2023-02-16T13:39:16;98463.81;;;14.15;96.24
70304;BME280;57712;48.752;11.348;2023-02-16T13:42:01;98469.31;;;14.15;97.86
70304;BME280;57712;48.752;11.348;2023-02-16T13:44:38;98462.66;;;13.01;100.00
70304;BME280;57712;48.752;11.348;2023-02-16T13:47:15;98458.31;;;14.15;98.89
70304;BME280;57712;48.752;11.348;2023-02-16T13:49:44;98463.94;;;12.93;100.00
70304;BME280;57712;48.752;11.348;2023-02-16T13:52:33;98452.72;;;13.41;100.00
70304;BME280;57712;48.752;11.348;2023-02-16T13:55:04;98458.22;;;13.45;100.00
70304;BME280;57712;48.752;11.348;2023-02-16T14:03:08;98452.25;;;13.16;100.00
70304;BME280;57712;48.752;11.348;2023-02-16T14:05:43;98454.09;;;12.95;100.00
70304;BME280;57712;48.752;11.348;2023-02-16T14:21:14;98434.41;;;11.80;100.00
70304;BME280;57712;48.752;11.348;2023-02-16T14:23:41;98438.41;;;11.62;100.00
70304;BME280;57712;48.752;11.348;2023-02-16T14:26:08;98436.53;;;11.51;100.00
70304;BME280;57712;48.752;11.348;2023-02-16T14:29:09;98442.63;;;11.11;100.00
70304;BME280;57712;48.752;11.348;2023-02-16T14:31:54;98443.38;;;11.18;100.00
70304;BME280;57712;48.752;11.348;2023-02-16T14:34:28;98439.72;;;11.39;100.00
70304;BME280;57712;48.752;11.348;2023-02-16T14:39:40;98441.50;;;10.94;100.00
70304;BME280;57712;48.752;11.348;2023-02-16T14:42:33;98441.97;;;10.85;100.00
70304;BME280;57712;48.752;11.348;2023-02-16T14:48:34;98439.63;;;10.84;100.00
70304;BME280;57712;48.752;11.348;2023-02-16T15:02:31;98457.09;;;11.15;100.00
70304;BME280;57712;48.752;11.348;2023-02-16T15:07:41;98455.16;;;11.12;100.00
70304;BME280;57712;48.752;11.348;2023-02-16T15:10:12;98455.19;;;11.05;100.00
70304;BME280;57712;48.752;11.348;2023-02-16T15:12:39;98451.00;;;10.61;100.00
70304;BME280;57712;48.752;11.348;2023-02-16T15:15:07;98456.50;;;10.61;100.00
70304;BME280;57712;48.752;11.348;2023-02-16T15:17:48;98453.00;;;10.46;100.00
70304;BME280;57712;48.752;11.348;2023-02-16T15:22:50;98457.69;;;10.49;100.00
70304;BME280;57712;48.752;11.348;2023-02-16T15:25:29;98456.91;;;10.20;100.00
70304;BME280;57712;48.752;11.348;2023-02-16T15:28:17;98454.19;;;10.17;100.00
70304;BME280;57712;48.752;11.348;2023-02-16T15:30:51;98448.72;;;9.99;100.00
70304;BME280;57712;48.752;11.348;2023-02-16T15:36:08;98444.41;;;9.76;100.00
70304;BME280;57712;48.752;11.348;2023-02-16T15:38:40;98437.75;;;9.63;100.00
70304;BME280;57712;48.752;11.348;2023-02-16T15:41:14;98434.22;;;9.52;100.00